sensor_id;sensor_type;location;lat;lon;timestamp;P1;durP1;ratioP1;P2;durP2;ratioP2
8683;SDS011;4379;59.744;18.206;2022-09-09T00:07:40;0.90;;;0.90;;
8683;SDS011;4379;59.744;18.206;2022-09-09T00:19:39;1.20;;;1.10;;
8683;SDS011;4379;59.744;18.206;2022-09-09T00:21:52;1.30;;;1.30;;
8683;SDS011;4379;59.744;18.206;2022-09-09T00:24:46;1.37;;;1.20;;
8683;SDS011;4379;59.744;18.206;2022-09-09T00:27:30;1.50;;;1.40;;
8683;SDS011;4379;59.744;18.206;2022-09-09T00:30:20;2.00;;;1.30;;
8683;SDS011;4379;59.744;18.206;2022-09-09T00:32:52;1.27;;;1.27;;
8683;SDS011;4379;59.744;18.206;2022-09-09T00:38:10;1.17;;;1.17;;
8683;SDS011;4379;59.744;18.206;2022-09-09T00:41:09;1.30;;;1.30;;
8683;SDS011;4379;59.744;18.206;2022-09-09T00:43:56;1.10;;;1.10;;
8683;SDS011;4379;59.744;18.206;2022-09-09T00:57:36;1.20;;;1.20;;
8683;SDS011;4379;59.744;18.206;2022-09-09T01:05:19;1.10;;;1.10;;
8683;SDS011;4379;59.744;18.206;2022-09-09T01:11:15;1.10;;;1.00;;
8683;SDS011;4379;59.744;18.206;2022-09-09T01:13:54;1.30;;;1.30;;
8683;SDS011;4379;59.744;18.206;2022-09-09T01:16:29;1.20;;;1.10;;
8683;SDS011;4379;59.744;18.206;2022-09-09T01:18:58;1.10;;;1.10;;
8683;SDS011;4379;59.744;18.206;2022-09-09T01:24:31;1.10;;;1.10;;
8683;SDS011;4379;59.744;18.206;2022-09-09T01:27:16;1.30;;;1.20;;
8683;SDS011;4379;59.744;18.206;2022-09-09T01:29:46;1.10;;;1.10;;
8683;SDS011;4379;59.744;18.206;2022-09-09T01:35:13;1.03;;;1.03;;
8683;SDS011;4379;59.744;18.206;2022-09-09T01:37:47;1.27;;;1.20;;
8683;SDS011;4379;59.744;18.206;2022-09-09T01:40:15;1.50;;;1.40;;
8683;SDS011;4379;59.744;18.206;2022-09-09T01:42:42;1.00;;;1.00;;
8683;SDS011;4379;59.744;18.206;2022-09-09T01:45:09;1.20;;;1.20;;
8683;SDS011;4379;59.744;18.206;2022-09-09T01:47:37;1.43;;;1.43;;
8683;SDS011;4379;59.744;18.206;2022-09-09T01:50:05;1.30;;;1.30;;
8683;SDS011;4379;59.744;18.206;2022-09-09T01:52:34;1.50;;;1.50;;
8683;SDS011;4379;59.744;18.206;2022-09-09T01:55:03;1.37;;;1.37;;
8683;SDS011;4379;59.744;18.206;2022-09-09T01:57:56;1.40;;;1.40;;
8683;SDS011;4379;59.744;18.206;2022-09-09T02:00:22;1.50;;;1.23;;
8683;SDS011;4379;59.744;18.206;2022-09-09T02:05:44;1.10;;;1.10;;
8683;SDS011;4379;59.744;18.206;2022-09-09T02:08:20;1.10;;;1.10;;
8683;SDS011;4379;59.744;18.206;2022-09-09T02:10:56;1.23;;;1.17;;
8683;SDS011;4379;59.744;18.206;2022-09-09T02:13:29;1.10;;;1.10;;
8683;SDS011;4379;59.744;18.206;2022-09-09T02:21:31;1.40;;;1.30;;
8683;SDS011;4379;59.744;18.206;2022-09-09T02:24:03;1.40;;;1.40;;
8683;SDS011;4379;59.744;18.206;2022-09-09T02:26:40;1.70;;;1.60;;
8683;SDS011;4379;59.744;18.206;2022-09-09T02:29:21;1.60;;;1.50;;
8683;SDS011;4379;59.744;18.206;2022-09-09T02:31:51;1.37;;;1.37;;
8683;SDS011;4379;59.744;18.206;2022-09-09T02:34:23;1.83;;;1.77;;
8683;SDS011;4379;59.744;18.206;2022-09-09T02:36:51;1.30;;;1.30;;
8683;SDS011;4379;59.744;18.206;2022-09-09T02:39:21;1.57;;;1.47;;
8683;SDS011;4379;59.744;18.206;2022-09-09T02:41:49;1.30;;;1.30;;
8683;SDS011;4379;59.744;18.206;2022-09-09T02:44:17;1.40;;;1.30;;
8683;SDS011;4379;59.744;18.206;2022-09-09T02:49:55;1.40;;;1.40;;
8683;SDS011;4379;59.744;18.206;2022-09-09T02:58:11;1.50;;;1.50;;
8683;SDS011;4379;59.744;18.206;2022-09-09T03:00:47;1.40;;;1.40;;
8683;SDS011;4379;59.744;18.206;2022-09-09T03:03:16;1.30;;;1.30;;
8683;SDS011;4379;59.744;18.206;2022-09-09T03:05:46;1.70;;;1.60;;
8683;SDS011;4379;59.744;18.206;2022-09-09T03:08:13;1.30;;;1.30;;
8683;SDS011;4379;59.744;18.206;2022-09-09T03:10:40;1.30;;;1.30;;
8683;SDS011;4379;59.744;18.206;2022-09-09T03:13:08;1.30;;;1.20;;
8683;SDS011;4379;59.744;18.206;2022-09-09T03:15:35;1.23;;;1.23;;
8683;SDS011;4379;59.744;18.206;2022-09-09T03:18:03;1.00;;;1.00;;
8683;SDS011;4379;59.744;18.206;2022-09-09T03:20:31;1.30;;;1.30;;
8683;SDS011;4379;59.744;18.206;2022-09-09T03:22:59;1.30;;;1.30;;
8683;SDS011;4379;59.744;18.206;2022-09-09T03:25:27;1.60;;;1.50;;
8683;SDS011;4379;59.744;18.206;2022-09-09T03:27:55;1.00;;;1.00;;
8683;SDS011;4379;59.744;18.206;2022-09-09T03:30:23;1.40;;;1.30;;
8683;SDS011;4379;59.744;18.206;2022-09-09T03:32:52;1.70;;;1.33;;
8683;SDS011;4379;59.744;18.206;2022-09-09T03:35:20;1.20;;;1.20;;
8683;SDS011;4379;59.744;18.206;2022-09-09T03:37:48;1.40;;;1.37;;
8683;SDS011;4379;59.744;18.206;2022-09-09T03:40:15;1.10;;;1.10;;
8683;SDS011;4379;59.744;18.206;2022-09-09T03:42:43;1.30;;;1.30;;
8683;SDS011;4379;59.744;18.206;2022-09-09T03:45:10;1.20;;;1.20;;
8683;SDS011;4379;59.744;18.206;2022-09-09T03:47:38;1.30;;;1.30;;
8683;SDS011;4379;59.744;18.206;2022-09-09T03:50:06;1.43;;;1.10;;
8683;SDS011;4379;59.744;18.206;2022-09-09T03:52:36;1.37;;;1.10;;
8683;SDS011;4379;59.744;18.206;2022-09-09T03:55:04;1.20;;;1.03;;
8683;SDS011;4379;59.744;18.206;2022-09-09T03:57:32;0.90;;;0.90;;
8683;SDS011;4379;59.744;18.206;2022-09-09T04:00:05;1.03;;;0.90;;
8683;SDS011;4379;59.744;18.206;2022-09-09T04:02:34;0.87;;;0.87;;
8683;SDS011;4379;59.744;18.206;2022-09-09T04:05:01;0.97;;;0.97;;
8683;SDS011;4379;59.744;18.206;2022-09-09T04:07:29;1.60;;;1.20;;
8683;SDS011;4379;59.744;18.206;2022-09-09T04:09:56;0.90;;;0.90;;
8683;SDS011;4379;59.744;18.206;2022-09-09T04:12:24;1.20;;;1.20;;
8683;SDS011;4379;59.744;18.206;2022-09-09T04:14:51;0.93;;;0.93;;
8683;SDS011;4379;59.744;18.206;2022-09-09T04:17:18;0.90;;;0.90;;
8683;SDS011;4379;59.744;18.206;2022-09-09T04:19:46;1.00;;;1.00;;
8683;SDS011;4379;59.744;18.206;2022-09-09T04:22:13;1.30;;;1.20;;
8683;SDS011;4379;59.744;18.206;2022-09-09T04:24:40;1.50;;;1.10;;
8683;SDS011;4379;59.744;18.206;2022-09-09T04:27:14;1.00;;;1.00;;
8683;SDS011;4379;59.744;18.206;2022-09-09T04:29:41;1.63;;;1.03;;
8683;SDS011;4379;59.744;18.206;2022-09-09T04:32:08;1.00;;;1.00;;
8683;SDS011;4379;59.744;18.206;2022-09-09T04:34:36;1.00;;;1.00;;
8683;SDS011;4379;59.744;18.206;2022-09-09T04:37:03;1.00;;;1.00;;
8683;SDS011;4379;59.744;18.206;2022-09-09T04:39:31;1.47;;;1.13;;
8683;SDS011;4379;59.744;18.206;2022-09-09T04:41:58;1.00;;;1.00;;
8683;SDS011;4379;59.744;18.206;2022-09-09T04:44:25;1.00;;;1.00;;
8683;SDS011;4379;59.744;18.206;2022-09-09T04:46:53;0.97;;;0.97;;
8683;SDS011;4379;59.744;18.206;2022-09-09T04:49:20;1.10;;;1.10;;
8683;SDS011;4379;59.744;18.206;2022-09-09T04:51:51;1.77;;;0.90;;
8683;SDS011;4379;59.744;18.206;2022-09-09T04:54:19;1.37;;;1.00;;
8683;SDS011;4379;59.744;18.206;2022-09-09T04:56:47;1.10;;;1.10;;
8683;SDS011;4379;59.744;18.206;2022-09-09T04:59:14;0.97;;;0.97;;
8683;SDS011;4379;59.744;18.206;2022-09-09T05:01:41;0.80;;;0.80;;
8683;SDS011;4379;59.744;18.206;2022-09-09T05:04:09;1.00;;;1.00;;
8683;SDS011;4379;59.744;18.206;2022-09-09T05:06:36;1.10;;;1.10;;
8683;SDS011;4379;59.744;18.206;2022-09-09T05:09:04;0.80;;;0.80;;
8683;SDS011;4379;59.744;18.206;2022-09-09T05:11:32;1.00;;;0.90;;
8683;SDS011;4379;59.744;18.206;2022-09-09T05:14:03;0.90;;;0.90;;
8683;SDS011;4379;59.744;18.206;2022-09-09T05:16:31;0.90;;;0.90;;
8683;SDS011;4379;59.744;18.206;2022-09-09T05:18:59;0.77;;;0.77;;
8683;SDS011;4379;59.744;18.206;2022-09-09T05:21:26;0.90;;;0.90;;
8683;SDS011;4379;59.744;18.206;2022-09-09T05:23:54;1.00;;;1.00;;
8683;SDS011;4379;59.744;18.206;2022-09-09T05:26:21;0.70;;;0.70;;
8683;SDS011;4379;59.744;18.206;2022-09-09T05:28:49;0.80;;;0.80;;
8683;SDS011;4379;59.744;18.206;2022-09-09T05:31:17;1.00;;;1.00;;
8683;SDS011;4379;59.744;18.206;2022-09-09T05:33:46;0.80;;;0.80;;
8683;SDS011;4379;59.744;18.206;2022-09-09T05:36:20;0.90;;;0.90;;
8683;SDS011;4379;59.744;18.206;2022-09-09T05:38:48;0.83;;;0.83;;
8683;SDS011;4379;59.744;18.206;2022-09-09T05:41:16;2.70;;;1.00;;
8683;SDS011;4379;59.744;18.206;2022-09-09T05:43:44;0.73;;;0.73;;
8683;SDS011;4379;59.744;18.206;2022-09-09T05:46:14;0.60;;;0.60;;
8683;SDS011;4379;59.744;18.206;2022-09-09T05:48:46;0.80;;;0.80;;
8683;SDS011;4379;59.744;18.206;2022-09-09T05:51:18;0.90;;;0.87;;
8683;SDS011;4379;59.744;18.206;2022-09-09T05:53:50;0.70;;;0.70;;
8683;SDS011;4379;59.744;18.206;2022-09-09T05:56:22;0.80;;;0.80;;
8683;SDS011;4379;59.744;18.206;2022-09-09T05:58:51;0.70;;;0.70;;
8683;SDS011;4379;59.744;18.206;2022-09-09T06:01:23;0.70;;;0.70;;
8683;SDS011;4379;59.744;18.206;2022-09-09T06:03:55;0.80;;;0.80;;
8683;SDS011;4379;59.744;18.206;2022-09-09T06:06:23;0.80;;;0.80;;
8683;SDS011;4379;59.744;18.206;2022-09-09T06:08:57;0.60;;;0.60;;
8683;SDS011;4379;59.744;18.206;2022-09-09T06:11:28;0.67;;;0.67;;
8683;SDS011;4379;59.744;18.206;2022-09-09T06:14:00;1.03;;;0.70;;
8683;SDS011;4379;59.744;18.206;2022-09-09T06:16:28;0.83;;;0.50;;
8683;SDS011;4379;59.744;18.206;2022-09-09T06:18:56;0.60;;;0.60;;
8683;SDS011;4379;59.744;18.206;2022-09-09T06:21:31;0.70;;;0.70;;
8683;SDS011;4379;59.744;18.206;2022-09-09T06:24:03;0.60;;;0.60;;
8683;SDS011;4379;59.744;18.206;2022-09-09T06:26:32;1.10;;;0.80;;
8683;SDS011;4379;59.744;18.206;2022-09-09T06:29:01;1.47;;;0.60;;
8683;SDS011;4379;59.744;18.206;2022-09-09T06:31:31;0.73;;;0.73;;
8683;SDS011;4379;59.744;18.206;2022-09-09T06:34:02;1.00;;;0.70;;
8683;SDS011;4379;59.744;18.206;2022-09-09T06:36:32;0.60;;;0.60;;
8683;SDS011;4379;59.744;18.206;2022-09-09T06:39:01;0.80;;;0.77;;
8683;SDS011;4379;59.744;18.206;2022-09-09T06:41:30;0.60;;;0.60;;
8683;SDS011;4379;59.744;18.206;2022-09-09T06:43:58;0.60;;;0.60;;
8683;SDS011;4379;59.744;18.206;2022-09-09T06:46:26;1.87;;;0.87;;
8683;SDS011;4379;59.744;18.206;2022-09-09T06:48:55;1.07;;;0.90;;
8683;SDS011;4379;59.744;18.206;2022-09-09T06:51:24;0.50;;;0.50;;
8683;SDS011;4379;59.744;18.206;2022-09-09T06:53:57;0.80;;;0.70;;
8683;SDS011;4379;59.744;18.206;2022-09-09T06:56:26;0.77;;;0.77;;
8683;SDS011;4379;59.744;18.206;2022-09-09T06:58:59;1.30;;;0.80;;
8683;SDS011;4379;59.744;18.206;2022-09-09T07:01:32;0.60;;;0.60;;
8683;SDS011;4379;59.744;18.206;2022-09-09T07:04:00;0.77;;;0.77;;
8683;SDS011;4379;59.744;18.206;2022-09-09T07:06:31;0.80;;;0.80;;
8683;SDS011;4379;59.744;18.206;2022-09-09T07:09:02;0.67;;;0.67;;
8683;SDS011;4379;59.744;18.206;2022-09-09T07:11:32;1.77;;;0.57;;
8683;SDS011;4379;59.744;18.206;2022-09-09T07:14:04;0.60;;;0.60;;
8683;SDS011;4379;59.744;18.206;2022-09-09T07:16:31;0.50;;;0.50;;
8683;SDS011;4379;59.744;18.206;2022-09-09T07:19:00;0.70;;;0.65;;
8683;SDS011;4379;59.744;18.206;2022-09-09T07:21:29;1.65;;;0.60;;
8683;SDS011;4379;59.744;18.206;2022-09-09T07:23:57;0.93;;;0.70;;
8683;SDS011;4379;59.744;18.206;2022-09-09T07:26:26;1.55;;;0.75;;
8683;SDS011;4379;59.744;18.206;2022-09-09T07:28:55;1.63;;;0.57;;
8683;SDS011;4379;59.744;18.206;2022-09-09T07:31:30;1.27;;;0.65;;
8683;SDS011;4379;59.744;18.206;2022-09-09T07:34:00;0.65;;;0.65;;
8683;SDS011;4379;59.744;18.206;2022-09-09T07:36:31;0.73;;;0.60;;
8683;SDS011;4379;59.744;18.206;2022-09-09T07:39:02;0.50;;;0.40;;
8683;SDS011;4379;59.744;18.206;2022-09-09T07:41:35;0.70;;;0.70;;
8683;SDS011;4379;59.744;18.206;2022-09-09T07:44:05;0.80;;;0.80;;
8683;SDS011;4379;59.744;18.206;2022-09-09T07:46:38;0.63;;;0.63;;
8683;SDS011;4379;59.744;18.206;2022-09-09T07:49:06;0.93;;;0.70;;
8683;SDS011;4379;59.744;18.206;2022-09-09T07:51:35;0.55;;;0.55;;
8683;SDS011;4379;59.744;18.206;2022-09-09T07:54:06;0.80;;;0.80;;
8683;SDS011;4379;59.744;18.206;2022-09-09T07:56:39;0.95;;;0.75;;
8683;SDS011;4379;59.744;18.206;2022-09-09T07:59:10;0.52;;;0.52;;
8683;SDS011;4379;59.744;18.206;2022-09-09T08:01:40;0.60;;;0.47;;
8683;SDS011;4379;59.744;18.206;2022-09-09T08:04:14;0.70;;;0.70;;
8683;SDS011;4379;59.744;18.206;2022-09-09T08:06:45;0.60;;;0.60;;
8683;SDS011;4379;59.744;18.206;2022-09-09T08:09:15;0.57;;;0.57;;
8683;SDS011;4379;59.744;18.206;2022-09-09T08:11:42;0.93;;;0.73;;
8683;SDS011;4379;59.744;18.206;2022-09-09T08:14:10;0.60;;;0.60;;
8683;SDS011;4379;59.744;18.206;2022-09-09T08:16:40;1.52;;;0.70;;
8683;SDS011;4379;59.744;18.206;2022-09-09T08:19:10;0.57;;;0.57;;
8683;SDS011;4379;59.744;18.206;2022-09-09T08:21:39;1.25;;;0.60;;
8683;SDS011;4379;59.744;18.206;2022-09-09T08:24:07;0.93;;;0.90;;
8683;SDS011;4379;59.744;18.206;2022-09-09T08:26:38;1.77;;;0.57;;
8683;SDS011;4379;59.744;18.206;2022-09-09T08:29:10;0.50;;;0.50;;
8683;SDS011;4379;59.744;18.206;2022-09-09T08:31:41;0.55;;;0.50;;
8683;SDS011;4379;59.744;18.206;2022-09-09T08:34:13;1.95;;;0.77;;
8683;SDS011;4379;59.744;18.206;2022-09-09T08:36:44;0.57;;;0.57;;
8683;SDS011;4379;59.744;18.206;2022-09-09T08:39:14;0.70;;;0.70;;
8683;SDS011;4379;59.744;18.206;2022-09-09T08:41:45;0.60;;;0.60;;
8683;SDS011;4379;59.744;18.206;2022-09-09T08:47:31;1.00;;;0.50;;
8683;SDS011;4379;59.744;18.206;2022-09-09T08:50:25;1.70;;;0.55;;
8683;SDS011;4379;59.744;18.206;2022-09-09T08:58:21;0.52;;;0.52;;
8683;SDS011;4379;59.744;18.206;2022-09-09T09:06:23;0.50;;;0.50;;
8683;SDS011;4379;59.744;18.206;2022-09-09T09:11:50;1.85;;;0.60;;
8683;SDS011;4379;59.744;18.206;2022-09-09T09:14:28;0.93;;;0.80;;
8683;SDS011;4379;59.744;18.206;2022-09-09T09:19:30;0.70;;;0.70;;
8683;SDS011;4379;59.744;18.206;2022-09-09T09:27:44;1.08;;;0.60;;
8683;SDS011;4379;59.744;18.206;2022-09-09T09:30:22;1.10;;;0.77;;
8683;SDS011;4379;59.744;18.206;2022-09-09T09:32:58;0.63;;;0.63;;
8683;SDS011;4379;59.744;18.206;2022-09-09T09:35:53;1.17;;;0.80;;
8683;SDS011;4379;59.744;18.206;2022-09-09T09:38:22;0.70;;;0.70;;
8683;SDS011;4379;59.744;18.206;2022-09-09T09:41:11;1.13;;;0.63;;
8683;SDS011;4379;59.744;18.206;2022-09-09T09:43:39;1.08;;;0.73;;
8683;SDS011;4379;59.744;18.206;2022-09-09T09:46:22;1.05;;;0.45;;
8683;SDS011;4379;59.744;18.206;2022-09-09T09:48:59;0.80;;;0.77;;
8683;SDS011;4379;59.744;18.206;2022-09-09T09:51:28;0.73;;;0.57;;
8683;SDS011;4379;59.744;18.206;2022-09-09T09:56:43;2.50;;;0.70;;
8683;SDS011;4379;59.744;18.206;2022-09-09T09:59:33;0.95;;;0.77;;
8683;SDS011;4379;59.744;18.206;2022-09-09T10:02:31;0.55;;;0.55;;
8683;SDS011;4379;59.744;18.206;2022-09-09T10:05:05;0.75;;;0.65;;
8683;SDS011;4379;59.744;18.206;2022-09-09T10:07:40;1.40;;;0.60;;
8683;SDS011;4379;59.744;18.206;2022-09-09T10:10:12;0.57;;;0.57;;
8683;SDS011;4379;59.744;18.206;2022-09-09T10:22:02;0.52;;;0.52;;
8683;SDS011;4379;59.744;18.206;2022-09-09T10:24:44;0.75;;;0.70;;
8683;SDS011;4379;59.744;18.206;2022-09-09T10:30:11;2.67;;;0.70;;
8683;SDS011;4379;59.744;18.206;2022-09-09T10:35:22;1.42;;;0.70;;
8683;SDS011;4379;59.744;18.206;2022-09-09T10:43:24;0.60;;;0.60;;
8683;SDS011;4379;59.744;18.206;2022-09-09T10:46:23;0.50;;;0.50;;
8683;SDS011;4379;59.744;18.206;2022-09-09T10:54:55;1.23;;;0.60;;
8683;SDS011;4379;59.744;18.206;2022-09-09T10:57:46;0.68;;;0.68;;
8683;SDS011;4379;59.744;18.206;2022-09-09T11:00:23;0.57;;;0.57;;
8683;SDS011;4379;59.744;18.206;2022-09-09T11:03:22;0.88;;;0.60;;
8683;SDS011;4379;59.744;18.206;2022-09-09T11:06:06;0.60;;;0.60;;
8683;SDS011;4379;59.744;18.206;2022-09-09T11:08:39;1.30;;;0.60;;
8683;SDS011;4379;59.744;18.206;2022-09-09T11:11:21;0.63;;;0.63;;
8683;SDS011;4379;59.744;18.206;2022-09-09T11:14:01;0.65;;;0.65;;
8683;SDS011;4379;59.744;18.206;2022-09-09T11:16:58;0.73;;;0.73;;
8683;SDS011;4379;59.744;18.206;2022-09-09T11:22:14;1.02;;;0.70;;
8683;SDS011;4379;59.744;18.206;2022-09-09T11:24:44;0.60;;;0.60;;
8683;SDS011;4379;59.744;18.206;2022-09-09T11:27:26;0.70;;;0.70;;
8683;SDS011;4379;59.744;18.206;2022-09-09T11:38:52;1.65;;;0.68;;
8683;SDS011;4379;59.744;18.206;2022-09-09T11:41:32;0.60;;;0.60;;
8683;SDS011;4379;59.744;18.206;2022-09-09T11:44:08;0.68;;;0.68;;
8683;SDS011;4379;59.744;18.206;2022-09-09T11:46:44;0.50;;;0.50;;
8683;SDS011;4379;59.744;18.206;2022-09-09T11:49:25;1.50;;;1.13;;
8683;SDS011;4379;59.744;18.206;2022-09-09T11:55:09;1.42;;;0.90;;
8683;SDS011;4379;59.744;18.206;2022-09-09T11:58:14;0.80;;;0.80;;
8683;SDS011;4379;59.744;18.206;2022-09-09T12:00:47;0.77;;;0.73;;
8683;SDS011;4379;59.744;18.206;2022-09-09T12:09:18;0.70;;;0.70;;
8683;SDS011;4379;59.744;18.206;2022-09-09T12:12:21;0.80;;;0.80;;
8683;SDS011;4379;59.744;18.206;2022-09-09T12:17:31;0.77;;;0.77;;
8683;SDS011;4379;59.744;18.206;2022-09-09T12:20:26;0.60;;;0.60;;
8683;SDS011;4379;59.744;18.206;2022-09-09T12:25:38;0.60;;;0.60;;
8683;SDS011;4379;59.744;18.206;2022-09-09T12:31:15;0.70;;;0.70;;
8683;SDS011;4379;59.744;18.206;2022-09-09T12:34:02;0.52;;;0.52;;
8683;SDS011;4379;59.744;18.206;2022-09-09T12:36:41;0.73;;;0.73;;
8683;SDS011;4379;59.744;18.206;2022-09-09T12:39:19;0.60;;;0.60;;
8683;SDS011;4379;59.744;18.206;2022-09-09T12:41:53;1.30;;;0.50;;
8683;SDS011;4379;59.744;18.206;2022-09-09T12:44:24;1.58;;;0.90;;
8683;SDS011;4379;59.744;18.206;2022-09-09T12:46:54;0.63;;;0.55;;
8683;SDS011;4379;59.744;18.206;2022-09-09T12:49:33;0.65;;;0.63;;
8683;SDS011;4379;59.744;18.206;2022-09-09T12:52:16;1.73;;;0.80;;
8683;SDS011;4379;59.744;18.206;2022-09-09T12:54:46;1.02;;;0.68;;
8683;SDS011;4379;59.744;18.206;2022-09-09T12:57:14;0.65;;;0.65;;
8683;SDS011;4379;59.744;18.206;2022-09-09T12:59:42;0.95;;;0.80;;
8683;SDS011;4379;59.744;18.206;2022-09-09T13:02:22;0.60;;;0.60;;
8683;SDS011;4379;59.744;18.206;2022-09-09T13:04:54;0.70;;;0.70;;
8683;SDS011;4379;59.744;18.206;2022-09-09T13:07:40;1.38;;;0.60;;
8683;SDS011;4379;59.744;18.206;2022-09-09T13:10:10;1.25;;;0.73;;
8683;SDS011;4379;59.744;18.206;2022-09-09T13:12:50;0.70;;;0.70;;
8683;SDS011;4379;59.744;18.206;2022-09-09T13:15:22;1.30;;;1.15;;
8683;SDS011;4379;59.744;18.206;2022-09-09T13:17:57;0.85;;;0.70;;
8683;SDS011;4379;59.744;18.206;2022-09-09T13:20:27;1.85;;;0.88;;
8683;SDS011;4379;59.744;18.206;2022-09-09T13:22:55;0.60;;;0.60;;
8683;SDS011;4379;59.744;18.206;2022-09-09T13:25:26;1.02;;;0.73;;
8683;SDS011;4379;59.744;18.206;2022-09-09T13:30:33;0.65;;;0.60;;
8683;SDS011;4379;59.744;18.206;2022-09-09T13:35:48;0.80;;;0.80;;
8683;SDS011;4379;59.744;18.206;2022-09-09T13:38:16;1.42;;;0.90;;
8683;SDS011;4379;59.744;18.206;2022-09-09T13:41:06;0.90;;;0.90;;
8683;SDS011;4379;59.744;18.206;2022-09-09T13:43:48;0.73;;;0.73;;
8683;SDS011;4379;59.744;18.206;2022-09-09T13:49:28;1.10;;;1.00;;
8683;SDS011;4379;59.744;18.206;2022-09-09T13:52:04;0.77;;;0.77;;
8683;SDS011;4379;59.744;18.206;2022-09-09T13:54:35;0.63;;;0.60;;
8683;SDS011;4379;59.744;18.206;2022-09-09T13:57:02;0.73;;;0.73;;
8683;SDS011;4379;59.744;18.206;2022-09-09T13:59:31;0.70;;;0.70;;
8683;SDS011;4379;59.744;18.206;2022-09-09T14:02:18;1.17;;;1.00;;
8683;SDS011;4379;59.744;18.206;2022-09-09T14:04:47;1.38;;;0.80;;
8683;SDS011;4379;59.744;18.206;2022-09-09T14:07:17;0.65;;;0.65;;
8683;SDS011;4379;59.744;18.206;2022-09-09T14:09:45;0.80;;;0.73;;
8683;SDS011;4379;59.744;18.206;2022-09-09T14:12:16;0.60;;;0.57;;
8683;SDS011;4379;59.744;18.206;2022-09-09T14:14:44;0.75;;;0.75;;
8683;SDS011;4379;59.744;18.206;2022-09-09T14:17:11;0.60;;;0.60;;
8683;SDS011;4379;59.744;18.206;2022-09-09T14:19:39;0.60;;;0.60;;
8683;SDS011;4379;59.744;18.206;2022-09-09T14:22:06;0.73;;;0.73;;
8683;SDS011;4379;59.744;18.206;2022-09-09T14:24:33;0.80;;;0.80;;
8683;SDS011;4379;59.744;18.206;2022-09-09T14:27:00;0.70;;;0.70;;
8683;SDS011;4379;59.744;18.206;2022-09-09T14:29:28;0.80;;;0.75;;
8683;SDS011;4379;59.744;18.206;2022-09-09T14:31:55;0.52;;;0.52;;
8683;SDS011;4379;59.744;18.206;2022-09-09T14:34:22;0.90;;;0.90;;
8683;SDS011;4379;59.744;18.206;2022-09-09T14:36:49;0.95;;;0.80;;
8683;SDS011;4379;59.744;18.206;2022-09-09T14:39:20;1.40;;;0.80;;
8683;SDS011;4379;59.744;18.206;2022-09-09T14:41:49;0.70;;;0.70;;
8683;SDS011;4379;59.744;18.206;2022-09-09T14:44:17;1.40;;;0.82;;
8683;SDS011;4379;59.744;18.206;2022-09-09T14:46:45;0.88;;;0.88;;
8683;SDS011;4379;59.744;18.206;2022-09-09T14:49:12;0.70;;;0.70;;
8683;SDS011;4379;59.744;18.206;2022-09-09T14:51:40;0.75;;;0.75;;
8683;SDS011;4379;59.744;18.206;2022-09-09T14:54:07;0.75;;;0.75;;
8683;SDS011;4379;59.744;18.206;2022-09-09T14:56:37;0.70;;;0.70;;
8683;SDS011;4379;59.744;18.206;2022-09-09T14:59:05;0.85;;;0.82;;
8683;SDS011;4379;59.744;18.206;2022-09-09T15:01:32;0.80;;;0.80;;
8683;SDS011;4379;59.744;18.206;2022-09-09T15:04:02;0.82;;;0.82;;
8683;SDS011;4379;59.744;18.206;2022-09-09T15:06:32;1.50;;;0.77;;
8683;SDS011;4379;59.744;18.206;2022-09-09T15:09:05;0.60;;;0.60;;
8683;SDS011;4379;59.744;18.206;2022-09-09T15:11:36;0.80;;;0.80;;
8683;SDS011;4379;59.744;18.206;2022-09-09T15:14:05;0.68;;;0.68;;
8683;SDS011;4379;59.744;18.206;2022-09-09T15:16:33;0.70;;;0.70;;
8683;SDS011;4379;59.744;18.206;2022-09-09T15:19:02;0.70;;;0.70;;
8683;SDS011;4379;59.744;18.206;2022-09-09T15:21:31;1.02;;;0.90;;
8683;SDS011;4379;59.744;18.206;2022-09-09T15:24:01;0.75;;;0.75;;
8683;SDS011;4379;59.744;18.206;2022-09-09T15:26:28;0.70;;;0.70;;
8683;SDS011;4379;59.744;18.206;2022-09-09T15:28:56;0.85;;;0.85;;
8683;SDS011;4379;59.744;18.206;2022-09-09T15:31:27;0.80;;;0.80;;
8683;SDS011;4379;59.744;18.206;2022-09-09T15:34:00;0.85;;;0.70;;
8683;SDS011;4379;59.744;18.206;2022-09-09T15:36:36;0.80;;;0.80;;
8683;SDS011;4379;59.744;18.206;2022-09-09T15:39:07;0.70;;;0.70;;
8683;SDS011;4379;59.744;18.206;2022-09-09T15:41:39;0.90;;;0.80;;
8683;SDS011;4379;59.744;18.206;2022-09-09T15:44:06;0.60;;;0.60;;
8683;SDS011;4379;59.744;18.206;2022-09-09T15:46:35;0.60;;;0.60;;
8683;SDS011;4379;59.744;18.206;2022-09-09T15:49:08;0.80;;;0.80;;
8683;SDS011;4379;59.744;18.206;2022-09-09T15:51:47;0.57;;;0.57;;
8683;SDS011;4379;59.744;18.206;2022-09-09T15:54:20;1.27;;;0.80;;
8683;SDS011;4379;59.744;18.206;2022-09-09T15:56:52;0.90;;;0.90;;
8683;SDS011;4379;59.744;18.206;2022-09-09T15:59:58;0.70;;;0.70;;
8683;SDS011;4379;59.744;18.206;2022-09-09T16:03:01;0.73;;;0.73;;
8683;SDS011;4379;59.744;18.206;2022-09-09T16:05:29;0.70;;;0.70;;
8683;SDS011;4379;59.744;18.206;2022-09-09T16:07:56;1.02;;;0.98;;
8683;SDS011;4379;59.744;18.206;2022-09-09T16:13:11;1.50;;;0.90;;
8683;SDS011;4379;59.744;18.206;2022-09-09T16:15:40;0.73;;;0.70;;
8683;SDS011;4379;59.744;18.206;2022-09-09T16:18:09;1.23;;;0.60;;
8683;SDS011;4379;59.744;18.206;2022-09-09T16:20:36;1.20;;;1.00;;
8683;SDS011;4379;59.744;18.206;2022-09-09T16:23:04;0.82;;;0.82;;
8683;SDS011;4379;59.744;18.206;2022-09-09T16:25:31;0.70;;;0.70;;
8683;SDS011;4379;59.744;18.206;2022-09-09T16:27:59;0.63;;;0.63;;
8683;SDS011;4379;59.744;18.206;2022-09-09T16:30:26;1.27;;;0.75;;
8683;SDS011;4379;59.744;18.206;2022-09-09T16:33:12;0.80;;;0.80;;
8683;SDS011;4379;59.744;18.206;2022-09-09T16:35:41;0.70;;;0.70;;
8683;SDS011;4379;59.744;18.206;2022-09-09T16:38:08;1.08;;;0.95;;
8683;SDS011;4379;59.744;18.206;2022-09-09T16:40:38;0.70;;;0.70;;
8683;SDS011;4379;59.744;18.206;2022-09-09T16:47:08;0.80;;;0.80;;
8683;SDS011;4379;59.744;18.206;2022-09-09T16:49:35;0.98;;;0.90;;
8683;SDS011;4379;59.744;18.206;2022-09-09T16:52:02;0.60;;;0.60;;
8683;SDS011;4379;59.744;18.206;2022-09-09T16:54:29;2.42;;;0.90;;
8683;SDS011;4379;59.744;18.206;2022-09-09T16:56:56;1.15;;;0.93;;
8683;SDS011;4379;59.744;18.206;2022-09-09T16:59:25;0.90;;;0.90;;
8683;SDS011;4379;59.744;18.206;2022-09-09T17:01:54;0.70;;;0.70;;
8683;SDS011;4379;59.744;18.206;2022-09-09T17:04:25;1.02;;;0.90;;
8683;SDS011;4379;59.744;18.206;2022-09-09T17:06:54;0.82;;;0.82;;
8683;SDS011;4379;59.744;18.206;2022-09-09T17:09:24;1.73;;;0.90;;
8683;SDS011;4379;59.744;18.206;2022-09-09T17:11:55;1.65;;;0.90;;
8683;SDS011;4379;59.744;18.206;2022-09-09T17:14:23;0.82;;;0.82;;
8683;SDS011;4379;59.744;18.206;2022-09-09T17:16:50;0.80;;;0.80;;
8683;SDS011;4379;59.744;18.206;2022-09-09T17:19:18;0.98;;;0.98;;
8683;SDS011;4379;59.744;18.206;2022-09-09T17:21:45;1.08;;;1.02;;
8683;SDS011;4379;59.744;18.206;2022-09-09T17:24:37;0.80;;;0.80;;
8683;SDS011;4379;59.744;18.206;2022-09-09T17:27:05;0.80;;;0.80;;
8683;SDS011;4379;59.744;18.206;2022-09-09T17:29:33;0.90;;;0.90;;
8683;SDS011;4379;59.744;18.206;2022-09-09T17:32:02;0.80;;;0.80;;
8683;SDS011;4379;59.744;18.206;2022-09-09T17:34:35;0.80;;;0.80;;
8683;SDS011;4379;59.744;18.206;2022-09-09T17:37:04;1.10;;;1.10;;
8683;SDS011;4379;59.744;18.206;2022-09-09T17:39:34;0.80;;;0.80;;
8683;SDS011;4379;59.744;18.206;2022-09-09T17:42:04;0.80;;;0.80;;
8683;SDS011;4379;59.744;18.206;2022-09-09T17:44:34;0.90;;;0.90;;
8683;SDS011;4379;59.744;18.206;2022-09-09T17:47:02;0.80;;;0.80;;
8683;SDS011;4379;59.744;18.206;2022-09-09T17:49:30;0.80;;;0.80;;
8683;SDS011;4379;59.744;18.206;2022-09-09T17:51:58;1.33;;;0.80;;
8683;SDS011;4379;59.744;18.206;2022-09-09T17:54:25;0.90;;;0.90;;
8683;SDS011;4379;59.744;18.206;2022-09-09T17:56:53;1.03;;;1.00;;
8683;SDS011;4379;59.744;18.206;2022-09-09T17:59:21;1.00;;;1.00;;
8683;SDS011;4379;59.744;18.206;2022-09-09T18:01:48;0.93;;;0.93;;
8683;SDS011;4379;59.744;18.206;2022-09-09T18:04:17;2.10;;;1.00;;
8683;SDS011;4379;59.744;18.206;2022-09-09T18:06:47;0.70;;;0.70;;
8683;SDS011;4379;59.744;18.206;2022-09-09T18:09:17;1.13;;;0.80;;